sensor_id;sensor_type;location;lat;lon;timestamp;temperature;humidity
24618;DHT22;12762;51.730;5.356;2022-11-20T00:01:29;-0.70;75.10
24618;DHT22;12762;51.730;5.356;2022-11-20T00:03:57;-0.70;75.10
24618;DHT22;12762;51.730;5.356;2022-11-20T00:06:26;-0.70;75.90
24618;DHT22;12762;51.730;5.356;2022-11-20T00:08:58;-0.70;75.10
24618;DHT22;12762;51.730;5.356;2022-11-20T00:11:28;-0.70;75.10
24618;DHT22;12762;51.730;5.356;2022-11-20T00:13:57;-0.70;75.10
24618;DHT22;12762;51.730;5.356;2022-11-20T00:16:29;-0.70;75.10
24618;DHT22;12762;51.730;5.356;2022-11-20T00:18:56;-0.70;75.10
24618;DHT22;12762;51.730;5.356;2022-11-20T00:21:27;-0.70;75.10
24618;DHT22;12762;51.730;5.356;2022-11-20T00:23:56;-0.70;75.20
24618;DHT22;12762;51.730;5.356;2022-11-20T00:26:24;-0.70;75.20
24618;DHT22;12762;51.730;5.356;2022-11-20T00:28:54;-0.80;75.10
24618;DHT22;12762;51.730;5.356;2022-11-20T00:31:22;-0.80;75.20
24618;DHT22;12762;51.730;5.356;2022-11-20T00:33:49;-0.80;75.10
24618;DHT22;12762;51.730;5.356;2022-11-20T00:36:19;-0.80;75.20
24618;DHT22;12762;51.730;5.356;2022-11-20T00:38:46;-0.80;75.20
24618;DHT22;12762;51.730;5.356;2022-11-20T00:41:15;-0.80;75.30
24618;DHT22;12762;51.730;5.356;2022-11-20T00:43:42;-0.80;75.20
24618;DHT22;12762;51.730;5.356;2022-11-20T00:46:14;-0.80;75.30
24618;DHT22;12762;51.730;5.356;2022-11-20T00:48:42;-0.80;75.30
24618;DHT22;12762;51.730;5.356;2022-11-20T00:51:12;-0.90;75.20
24618;DHT22;12762;51.730;5.356;2022-11-20T00:53:39;-0.90;75.20
24618;DHT22;12762;51.730;5.356;2022-11-20T00:56:09;-0.90;75.20
24618;DHT22;12762;51.730;5.356;2022-11-20T00:58:39;-0.90;75.20
24618;DHT22;12762;51.730;5.356;2022-11-20T01:01:06;-0.90;75.30
24618;DHT22;12762;51.730;5.356;2022-11-20T01:03:36;-0.90;75.30
24618;DHT22;12762;51.730;5.356;2022-11-20T01:06:06;-0.90;75.30
24618;DHT22;12762;51.730;5.356;2022-11-20T01:08:34;-0.90;75.40
24618;DHT22;12762;51.730;5.356;2022-11-20T01:11:04;-0.90;75.30
24618;DHT22;12762;51.730;5.356;2022-11-20T01:13:31;-0.90;75.40
24618;DHT22;12762;51.730;5.356;2022-11-20T01:16:09;-0.90;75.40
24618;DHT22;12762;51.730;5.356;2022-11-20T01:18:38;-0.90;75.50
24618;DHT22;12762;51.730;5.356;2022-11-20T01:21:08;-0.90;75.50
24618;DHT22;12762;51.730;5.356;2022-11-20T01:23:39;-1.00;75.40
24618;DHT22;12762;51.730;5.356;2022-11-20T01:26:08;-1.00;75.40
24618;DHT22;12762;51.730;5.356;2022-11-20T01:28:36;-1.00;75.40
24618;DHT22;12762;51.730;5.356;2022-11-20T01:31:11;-1.00;76.20
24618;DHT22;12762;51.730;5.356;2022-11-20T01:33:40;-1.00;76.30
24618;DHT22;12762;51.730;5.356;2022-11-20T01:36:08;-1.00;75.40
24618;DHT22;12762;51.730;5.356;2022-11-20T01:38:35;-1.10;75.40
24618;DHT22;12762;51.730;5.356;2022-11-20T01:41:02;-1.10;75.40
24618;DHT22;12762;51.730;5.356;2022-11-20T01:43:29;-1.10;75.40
24618;DHT22;12762;51.730;5.356;2022-11-20T01:46:22;-1.10;75.50
24618;DHT22;12762;51.730;5.356;2022-11-20T01:49:08;-1.20;75.40
24618;DHT22;12762;51.730;5.356;2022-11-20T01:52:00;-1.20;75.50
24618;DHT22;12762;51.730;5.356;2022-11-20T01:54:36;-1.20;75.50
24618;DHT22;12762;51.730;5.356;2022-11-20T01:57:09;-1.20;75.50
24618;DHT22;12762;51.730;5.356;2022-11-20T01:59:40;-1.20;75.50
24618;DHT22;12762;51.730;5.356;2022-11-20T02:02:10;-1.30;75.40
24618;DHT22;12762;51.730;5.356;2022-11-20T02:04:37;-1.30;75.40
24618;DHT22;12762;51.730;5.356;2022-11-20T02:07:05;-1.30;75.40
24618;DHT22;12762;51.730;5.356;2022-11-20T02:09:32;-1.40;75.30
24618;DHT22;12762;51.730;5.356;2022-11-20T02:11:59;-1.40;75.40
24618;DHT22;12762;51.730;5.356;2022-11-20T02:14:26;-1.40;75.40
24618;DHT22;12762;51.730;5.356;2022-11-20T02:16:54;-1.40;75.50
24618;DHT22;12762;51.730;5.356;2022-11-20T02:19:26;-1.40;75.60
24618;DHT22;12762;51.730;5.356;2022-11-20T02:22:14;-1.40;75.60
24618;DHT22;12762;51.730;5.356;2022-11-20T02:24:44;-1.50;75.60
24618;DHT22;12762;51.730;5.356;2022-11-20T02:27:13;-1.50;75.60
24618;DHT22;12762;51.730;5.356;2022-11-20T02:29:53;-1.50;75.60
24618;DHT22;12762;51.730;5.356;2022-11-20T02:32:42;-1.50;75.60
24618;DHT22;12762;51.730;5.356;2022-11-20T02:35:38;-1.50;75.60
24618;DHT22;12762;51.730;5.356;2022-11-20T02:37:59;-1.50;75.70
24618;DHT22;12762;51.730;5.356;2022-11-20T02:40:27;-1.60;75.50
24618;DHT22;12762;51.730;5.356;2022-11-20T02:42:56;-1.60;75.50
24618;DHT22;12762;51.730;5.356;2022-11-20T02:45:24;-1.60;75.60
24618;DHT22;12762;51.730;5.356;2022-11-20T02:47:51;-1.60;75.50
24618;DHT22;12762;51.730;5.356;2022-11-20T02:50:18;-1.60;75.50
24618;DHT22;12762;51.730;5.356;2022-11-20T02:52:45;-1.70;75.50
24618;DHT22;12762;51.730;5.356;2022-11-20T02:55:12;-1.70;75.50
24618;DHT22;12762;51.730;5.356;2022-11-20T02:57:39;-1.70;75.60
24618;DHT22;12762;51.730;5.356;2022-11-20T03:00:06;-1.70;75.60
24618;DHT22;12762;51.730;5.356;2022-11-20T03:02:33;-1.70;75.60
24618;DHT22;12762;51.730;5.356;2022-11-20T03:05:00;-1.80;75.60
24618;DHT22;12762;51.730;5.356;2022-11-20T03:07:27;-1.80;75.60
24618;DHT22;12762;51.730;5.356;2022-11-20T03:09:54;-1.80;75.60
24618;DHT22;12762;51.730;5.356;2022-11-20T03:12:21;-1.80;75.60
24618;DHT22;12762;51.730;5.356;2022-11-20T03:14:48;-1.80;75.60
24618;DHT22;12762;51.730;5.356;2022-11-20T03:17:19;-1.80;75.60
24618;DHT22;12762;51.730;5.356;2022-11-20T03:19:46;-1.80;75.70
24618;DHT22;12762;51.730;5.356;2022-11-20T03:22:16;-1.80;75.70
24618;DHT22;12762;51.730;5.356;2022-11-20T03:24:43;-1.80;75.70
24618;DHT22;12762;51.730;5.356;2022-11-20T03:27:10;-1.90;75.60
24618;DHT22;12762;51.730;5.356;2022-11-20T03:29:36;-1.80;75.70
24618;DHT22;12762;51.730;5.356;2022-11-20T03:32:03;-1.80;75.70
24618;DHT22;12762;51.730;5.356;2022-11-20T03:34:30;-1.90;75.60
24618;DHT22;12762;51.730;5.356;2022-11-20T03:36:57;-1.90;75.70
24618;DHT22;12762;51.730;5.356;2022-11-20T03:39:24;-1.90;75.70
24618;DHT22;12762;51.730;5.356;2022-11-20T03:41:54;-1.90;75.70
24618;DHT22;12762;51.730;5.356;2022-11-20T03:44:21;-1.90;75.70
24618;DHT22;12762;51.730;5.356;2022-11-20T03:46:48;-1.90;75.70
24618;DHT22;12762;51.730;5.356;2022-11-20T03:49:15;-1.90;75.70
24618;DHT22;12762;51.730;5.356;2022-11-20T03:51:42;-1.90;75.70
24618;DHT22;12762;51.730;5.356;2022-11-20T03:54:09;-1.90;75.70
24618;DHT22;12762;51.730;5.356;2022-11-20T03:56:37;-2.00;75.60
24618;DHT22;12762;51.730;5.356;2022-11-20T03:59:05;-2.00;75.60
24618;DHT22;12762;51.730;5.356;2022-11-20T04:01:36;-2.00;75.70
24618;DHT22;12762;51.730;5.356;2022-11-20T04:04:04;-2.00;75.80
24618;DHT22;12762;51.730;5.356;2022-11-20T04:06:36;-2.00;75.70
24618;DHT22;12762;51.730;5.356;2022-11-20T04:09:07;-2.10;75.70
24618;DHT22;12762;51.730;5.356;2022-11-20T04:11:36;-2.10;75.70
24618;DHT22;12762;51.730;5.356;2022-11-20T04:14:05;-2.10;75.70
24618;DHT22;12762;51.730;5.356;2022-11-20T04:16:34;-2.10;75.80
24618;DHT22;12762;51.730;5.356;2022-11-20T04:19:08;-2.10;75.80
24618;DHT22;12762;51.730;5.356;2022-11-20T04:21:36;-2.10;75.80
24618;DHT22;12762;51.730;5.356;2022-11-20T04:24:06;-2.10;75.80
24618;DHT22;12762;51.730;5.356;2022-11-20T04:26:33;-2.20;75.70
24618;DHT22;12762;51.730;5.356;2022-11-20T04:29:00;-2.20;75.80
24618;DHT22;12762;51.730;5.356;2022-11-20T04:31:32;-2.20;76.60
24618;DHT22;12762;51.730;5.356;2022-11-20T04:34:01;-2.20;76.60
24618;DHT22;12762;51.730;5.356;2022-11-20T04:36:29;-2.20;75.90
24618;DHT22;12762;51.730;5.356;2022-11-20T04:38:58;-2.20;75.90
24618;DHT22;12762;51.730;5.356;2022-11-20T04:41:27;-2.20;75.80
24618;DHT22;12762;51.730;5.356;2022-11-20T04:43:59;-2.20;75.80
24618;DHT22;12762;51.730;5.356;2022-11-20T04:46:37;-2.20;75.90
24618;DHT22;12762;51.730;5.356;2022-11-20T04:49:05;-2.20;75.90
24618;DHT22;12762;51.730;5.356;2022-11-20T04:51:32;-2.30;75.80
24618;DHT22;12762;51.730;5.356;2022-11-20T04:54:00;-2.30;75.80
24618;DHT22;12762;51.730;5.356;2022-11-20T04:56:26;-2.30;75.80
24618;DHT22;12762;51.730;5.356;2022-11-20T04:58:53;-2.30;76.60
24618;DHT22;12762;51.730;5.356;2022-11-20T05:01:24;-2.30;75.80
24618;DHT22;12762;51.730;5.356;2022-11-20T05:03:53;-2.30;75.90
24618;DHT22;12762;51.730;5.356;2022-11-20T05:06:23;-2.30;75.80
24618;DHT22;12762;51.730;5.356;2022-11-20T05:08:50;-2.40;75.80
24618;DHT22;12762;51.730;5.356;2022-11-20T05:11:19;-2.30;75.90
24618;DHT22;12762;51.730;5.356;2022-11-20T05:13:47;-2.30;75.90
24618;DHT22;12762;51.730;5.356;2022-11-20T05:16:21;-2.40;75.80
24618;DHT22;12762;51.730;5.356;2022-11-20T05:18:48;-2.40;75.80
24618;DHT22;12762;51.730;5.356;2022-11-20T05:21:16;-2.40;75.90
24618;DHT22;12762;51.730;5.356;2022-11-20T05:23:44;-2.40;75.80
24618;DHT22;12762;51.730;5.356;2022-11-20T05:26:21;-2.40;75.90
24618;DHT22;12762;51.730;5.356;2022-11-20T05:28:49;-2.50;75.80
24618;DHT22;12762;51.730;5.356;2022-11-20T05:31:18;-2.50;75.80
24618;DHT22;12762;51.730;5.356;2022-11-20T05:33:53;-2.50;75.90
24618;DHT22;12762;51.730;5.356;2022-11-20T05:36:20;-2.50;75.90
24618;DHT22;12762;51.730;5.356;2022-11-20T05:38:47;-2.50;75.90
24618;DHT22;12762;51.730;5.356;2022-11-20T05:41:20;-2.60;75.80
24618;DHT22;12762;51.730;5.356;2022-11-20T05:43:48;-2.60;75.80
24618;DHT22;12762;51.730;5.356;2022-11-20T05:46:20;-2.60;75.80
24618;DHT22;12762;51.730;5.356;2022-11-20T05:48:54;-2.60;76.00
24618;DHT22;12762;51.730;5.356;2022-11-20T05:51:26;-2.70;75.80
24618;DHT22;12762;51.730;5.356;2022-11-20T05:53:53;-2.60;76.00
24618;DHT22;12762;51.730;5.356;2022-11-20T05:56:22;-2.60;76.00
24618;DHT22;12762;51.730;5.356;2022-11-20T05:58:49;-2.60;76.10
24618;DHT22;12762;51.730;5.356;2022-11-20T06:01:24;-2.60;76.10
24618;DHT22;12762;51.730;5.356;2022-11-20T06:03:52;-2.60;76.00
24618;DHT22;12762;51.730;5.356;2022-11-20T06:06:19;-2.60;76.00
24618;DHT22;12762;51.730;5.356;2022-11-20T06:08:49;-2.60;76.00
24618;DHT22;12762;51.730;5.356;2022-11-20T06:11:17;-2.50;76.10
24618;DHT22;12762;51.730;5.356;2022-11-20T06:13:44;-2.50;76.10
24618;DHT22;12762;51.730;5.356;2022-11-20T06:16:13;-2.50;76.10
24618;DHT22;12762;51.730;5.356;2022-11-20T06:18:40;-2.50;76.20
24618;DHT22;12762;51.730;5.356;2022-11-20T06:21:12;-2.50;76.00
24618;DHT22;12762;51.730;5.356;2022-11-20T06:23:39;-2.50;76.10
24618;DHT22;12762;51.730;5.356;2022-11-20T06:26:11;-2.50;76.20
24618;DHT22;12762;51.730;5.356;2022-11-20T06:28:39;-2.50;76.10
24618;DHT22;12762;51.730;5.356;2022-11-20T06:31:11;-2.50;76.10
24618;DHT22;12762;51.730;5.356;2022-11-20T06:33:42;-2.40;76.20
24618;DHT22;12762;51.730;5.356;2022-11-20T06:36:11;-2.40;76.30
24618;DHT22;12762;51.730;5.356;2022-11-20T06:38:38;-2.40;76.20
24618;DHT22;12762;51.730;5.356;2022-11-20T06:41:07;-2.40;76.30
24618;DHT22;12762;51.730;5.356;2022-11-20T06:43:35;-2.40;76.20
24618;DHT22;12762;51.730;5.356;2022-11-20T06:46:02;-2.40;76.20
24618;DHT22;12762;51.730;5.356;2022-11-20T06:48:29;-2.40;76.20
24618;DHT22;12762;51.730;5.356;2022-11-20T06:50:59;-2.30;76.20
24618;DHT22;12762;51.730;5.356;2022-11-20T06:53:28;-2.30;76.20
24618;DHT22;12762;51.730;5.356;2022-11-20T06:55:56;-2.30;76.20
24618;DHT22;12762;51.730;5.356;2022-11-20T06:58:25;-2.30;76.30
24618;DHT22;12762;51.730;5.356;2022-11-20T07:00:52;-2.30;76.20
24618;DHT22;12762;51.730;5.356;2022-11-20T07:03:19;-2.30;76.20
24618;DHT22;12762;51.730;5.356;2022-11-20T07:05:46;-2.30;76.20
24618;DHT22;12762;51.730;5.356;2022-11-20T07:08:13;-2.20;76.30
24618;DHT22;12762;51.730;5.356;2022-11-20T07:10:40;-2.20;76.30
24618;DHT22;12762;51.730;5.356;2022-11-20T07:13:06;-2.20;76.30
24618;DHT22;12762;51.730;5.356;2022-11-20T07:15:34;-2.20;76.30
24618;DHT22;12762;51.730;5.356;2022-11-20T07:18:01;-2.10;76.40
24618;DHT22;12762;51.730;5.356;2022-11-20T07:20:28;-2.10;76.40
24618;DHT22;12762;51.730;5.356;2022-11-20T07:22:56;-2.10;76.40
24618;DHT22;12762;51.730;5.356;2022-11-20T07:25:24;-2.10;76.40
24618;DHT22;12762;51.730;5.356;2022-11-20T07:27:52;-2.00;76.50
24618;DHT22;12762;51.730;5.356;2022-11-20T07:30:19;-2.00;76.50
24618;DHT22;12762;51.730;5.356;2022-11-20T07:32:47;-2.00;76.40
24618;DHT22;12762;51.730;5.356;2022-11-20T07:35:14;-2.00;76.50
24618;DHT22;12762;51.730;5.356;2022-11-20T07:37:43;-1.90;76.50
24618;DHT22;12762;51.730;5.356;2022-11-20T07:40:12;-1.90;76.50
24618;DHT22;12762;51.730;5.356;2022-11-20T07:42:50;-1.90;76.50
24618;DHT22;12762;51.730;5.356;2022-11-20T07:45:18;-1.80;76.60
24618;DHT22;12762;51.730;5.356;2022-11-20T07:47:45;-1.80;76.70
24618;DHT22;12762;51.730;5.356;2022-11-20T07:50:12;-1.70;77.50
24618;DHT22;12762;51.730;5.356;2022-11-20T07:52:40;-1.70;76.70
24618;DHT22;12762;51.730;5.356;2022-11-20T07:55:10;-1.60;76.70
24618;DHT22;12762;51.730;5.356;2022-11-20T07:57:43;-1.50;76.80
24618;DHT22;12762;51.730;5.356;2022-11-20T08:00:10;-1.50;76.80
24618;DHT22;12762;51.730;5.356;2022-11-20T08:02:41;-1.40;76.90
24618;DHT22;12762;51.730;5.356;2022-11-20T08:05:09;-1.30;76.90
24618;DHT22;12762;51.730;5.356;2022-11-20T08:07:39;-1.20;77.00
24618;DHT22;12762;51.730;5.356;2022-11-20T08:10:09;-1.20;76.90
24618;DHT22;12762;51.730;5.356;2022-11-20T08:12:47;-1.10;76.90
24618;DHT22;12762;51.730;5.356;2022-11-20T08:15:33;-1.10;76.90
24618;DHT22;12762;51.730;5.356;2022-11-20T08:18:10;-1.00;76.90
24618;DHT22;12762;51.730;5.356;2022-11-20T08:21:01;-1.00;76.80
24618;DHT22;12762;51.730;5.356;2022-11-20T08:23:28;-1.00;76.80
24618;DHT22;12762;51.730;5.356;2022-11-20T08:25:57;-0.90;76.90
24618;DHT22;12762;51.730;5.356;2022-11-20T08:28:27;-0.90;76.90
24618;DHT22;12762;51.730;5.356;2022-11-20T08:31:00;-0.80;77.00
24618;DHT22;12762;51.730;5.356;2022-11-20T08:33:28;-0.80;77.00
24618;DHT22;12762;51.730;5.356;2022-11-20T08:36:02;-0.70;77.10
24618;DHT22;12762;51.730;5.356;2022-11-20T08:38:30;-0.70;77.10
24618;DHT22;12762;51.730;5.356;2022-11-20T08:41:01;-0.60;77.20
24618;DHT22;12762;51.730;5.356;2022-11-20T08:43:48;-0.50;77.30
24618;DHT22;12762;51.730;5.356;2022-11-20T08:46:14;-0.40;77.40
24618;DHT22;12762;51.730;5.356;2022-11-20T08:48:44;-0.30;77.40
24618;DHT22;12762;51.730;5.356;2022-11-20T08:51:11;-0.20;77.40
24618;DHT22;12762;51.730;5.356;2022-11-20T08:53:39;-0.20;77.50
24618;DHT22;12762;51.730;5.356;2022-11-20T08:56:06;-0.10;77.50
24618;DHT22;12762;51.730;5.356;2022-11-20T08:58:38;0.00;77.60
24618;DHT22;12762;51.730;5.356;2022-11-20T09:01:25;0.10;77.60
24618;DHT22;12762;51.730;5.356;2022-11-20T09:03:55;0.20;77.60
24618;DHT22;12762;51.730;5.356;2022-11-20T09:06:23;0.30;77.70
24618;DHT22;12762;51.730;5.356;2022-11-20T09:08:53;0.30;77.60
24618;DHT22;12762;51.730;5.356;2022-11-20T09:11:20;0.40;77.60
24618;DHT22;12762;51.730;5.356;2022-11-20T09:13:48;0.50;77.80
24618;DHT22;12762;51.730;5.356;2022-11-20T09:16:22;0.60;77.70
24618;DHT22;12762;51.730;5.356;2022-11-20T09:18:50;0.70;77.70
24618;DHT22;12762;51.730;5.356;2022-11-20T09:21:40;0.70;77.70
24618;DHT22;12762;51.730;5.356;2022-11-20T09:24:07;0.80;77.60
24618;DHT22;12762;51.730;5.356;2022-11-20T09:26:33;0.80;77.60
24618;DHT22;12762;51.730;5.356;2022-11-20T09:29:00;0.80;77.70
24618;DHT22;12762;51.730;5.356;2022-11-20T09:31:27;0.80;77.70
24618;DHT22;12762;51.730;5.356;2022-11-20T09:33:54;0.90;77.80
24618;DHT22;12762;51.730;5.356;2022-11-20T09:36:21;1.00;78.70
24618;DHT22;12762;51.730;5.356;2022-11-20T09:38:48;1.00;78.00
24618;DHT22;12762;51.730;5.356;2022-11-20T09:41:53;1.10;78.00
24618;DHT22;12762;51.730;5.356;2022-11-20T09:50:27;1.30;78.10
24618;DHT22;12762;51.730;5.356;2022-11-20T09:53:01;1.30;78.20
24618;DHT22;12762;51.730;5.356;2022-11-20T09:55:31;1.40;78.30
24618;DHT22;12762;51.730;5.356;2022-11-20T09:57:59;1.50;78.40
24618;DHT22;12762;51.730;5.356;2022-11-20T10:00:27;1.60;78.40
24618;DHT22;12762;51.730;5.356;2022-11-20T10:03:14;1.60;78.30
24618;DHT22;12762;51.730;5.356;2022-11-20T10:05:48;1.60;78.30
24618;DHT22;12762;51.730;5.356;2022-11-20T10:08:40;1.60;78.20
24618;DHT22;12762;51.730;5.356;2022-11-20T10:11:33;1.70;78.40
24618;DHT22;12762;51.730;5.356;2022-11-20T10:14:23;1.70;78.40
24618;DHT22;12762;51.730;5.356;2022-11-20T10:17:15;1.70;78.40
24618;DHT22;12762;51.730;5.356;2022-11-20T10:25:24;1.80;78.60
24618;DHT22;12762;51.730;5.356;2022-11-20T10:30:46;1.90;78.70
24618;DHT22;12762;51.730;5.356;2022-11-20T10:33:24;1.90;78.70
24618;DHT22;12762;51.730;5.356;2022-11-20T10:36:26;2.00;78.90
24618;DHT22;12762;51.730;5.356;2022-11-20T10:38:58;2.00;78.80
24618;DHT22;12762;51.730;5.356;2022-11-20T10:41:41;2.10;78.90
24618;DHT22;12762;51.730;5.356;2022-11-20T10:44:26;2.20;79.10
24618;DHT22;12762;51.730;5.356;2022-11-20T10:47:20;2.30;79.20
24618;DHT22;12762;51.730;5.356;2022-11-20T10:49:53;2.40;79.30
24618;DHT22;12762;51.730;5.356;2022-11-20T10:58:04;2.80;79.50
24618;DHT22;12762;51.730;5.356;2022-11-20T11:00:35;2.90;79.50
24618;DHT22;12762;51.730;5.356;2022-11-20T11:03:02;3.00;79.30
24618;DHT22;12762;51.730;5.356;2022-11-20T11:05:42;3.00;79.30
24618;DHT22;12762;51.730;5.356;2022-11-20T11:08:16;3.10;79.40
24618;DHT22;12762;51.730;5.356;2022-11-20T11:13:29;3.10;79.30
24618;DHT22;12762;51.730;5.356;2022-11-20T11:15:56;3.20;79.30
24618;DHT22;12762;51.730;5.356;2022-11-20T11:18:29;3.20;79.40
24618;DHT22;12762;51.730;5.356;2022-11-20T11:20:58;3.20;79.40
24618;DHT22;12762;51.730;5.356;2022-11-20T11:23:40;3.20;79.40
24618;DHT22;12762;51.730;5.356;2022-11-20T11:26:23;3.20;79.50
24618;DHT22;12762;51.730;5.356;2022-11-20T11:29:01;3.20;79.50
24618;DHT22;12762;51.730;5.356;2022-11-20T11:31:30;3.20;79.60
24618;DHT22;12762;51.730;5.356;2022-11-20T11:34:05;3.30;79.80
24618;DHT22;12762;51.730;5.356;2022-11-20T11:36:34;3.30;79.90
24618;DHT22;12762;51.730;5.356;2022-11-20T11:39:03;3.30;79.90
24618;DHT22;12762;51.730;5.356;2022-11-20T11:41:32;3.30;79.90
24618;DHT22;12762;51.730;5.356;2022-11-20T11:44:23;3.30;79.90
24618;DHT22;12762;51.730;5.356;2022-11-20T11:47:25;3.30;79.90
24618;DHT22;12762;51.730;5.356;2022-11-20T11:55:30;3.40;80.20
24618;DHT22;12762;51.730;5.356;2022-11-20T12:00:45;3.50;80.30
24618;DHT22;12762;51.730;5.356;2022-11-20T12:03:28;3.60;80.40
24618;DHT22;12762;51.730;5.356;2022-11-20T12:05:59;3.60;81.20
24618;DHT22;12762;51.730;5.356;2022-11-20T12:13:58;3.70;80.50
24618;DHT22;12762;51.730;5.356;2022-11-20T12:16:35;3.80;80.70
24618;DHT22;12762;51.730;5.356;2022-11-20T12:19:11;3.80;81.40
24618;DHT22;12762;51.730;5.356;2022-11-20T12:38:59;4.10;80.90
24618;DHT22;12762;51.730;5.356;2022-11-20T12:50:32;4.20;81.00
24618;DHT22;12762;51.730;5.356;2022-11-20T12:56:20;4.30;81.10
24618;DHT22;12762;51.730;5.356;2022-11-20T13:02:36;4.40;81.10
24618;DHT22;12762;51.730;5.356;2022-11-20T13:07:15;4.50;81.40
24618;DHT22;12762;51.730;5.356;2022-11-20T13:09:47;4.50;81.30
24618;DHT22;12762;51.730;5.356;2022-11-20T13:14:55;4.60;81.30
24618;DHT22;12762;51.730;5.356;2022-11-20T13:17:30;4.70;81.50
24618;DHT22;12762;51.730;5.356;2022-11-20T13:20:01;4.70;81.50
24618;DHT22;12762;51.730;5.356;2022-11-20T13:22:52;4.70;81.50
24618;DHT22;12762;51.730;5.356;2022-11-20T13:25:30;4.80;81.50
24618;DHT22;12762;51.730;5.356;2022-11-20T13:28:00;4.80;81.60
24618;DHT22;12762;51.730;5.356;2022-11-20T13:30:29;4.90;81.70
24618;DHT22;12762;51.730;5.356;2022-11-20T13:33:04;4.90;81.60
24618;DHT22;12762;51.730;5.356;2022-11-20T13:35:37;4.90;81.70
24618;DHT22;12762;51.730;5.356;2022-11-20T13:38:14;5.00;81.70
24618;DHT22;12762;51.730;5.356;2022-11-20T13:40:53;5.00;81.70
24618;DHT22;12762;51.730;5.356;2022-11-20T13:43:37;5.00;81.80
24618;DHT22;12762;51.730;5.356;2022-11-20T13:46:07;5.00;81.80
24618;DHT22;12762;51.730;5.356;2022-11-20T13:48:45;5.00;81.80
24618;DHT22;12762;51.730;5.356;2022-11-20T13:51:36;5.00;81.80
24618;DHT22;12762;51.730;5.356;2022-11-20T13:54:44;5.00;81.90
24618;DHT22;12762;51.730;5.356;2022-11-20T14:00:16;5.00;81.90
24618;DHT22;12762;51.730;5.356;2022-11-20T14:02:47;5.00;82.10
24618;DHT22;12762;51.730;5.356;2022-11-20T14:05:23;5.00;82.10
24618;DHT22;12762;51.730;5.356;2022-11-20T14:07:51;5.00;82.10
24618;DHT22;12762;51.730;5.356;2022-11-20T14:10:26;5.00;82.10
24618;DHT22;12762;51.730;5.356;2022-11-20T14:12:58;5.00;82.20
24618;DHT22;12762;51.730;5.356;2022-11-20T14:15:35;5.00;82.20
24618;DHT22;12762;51.730;5.356;2022-11-20T14:18:19;5.10;82.30
24618;DHT22;12762;51.730;5.356;2022-11-20T14:20:46;5.10;82.40
24618;DHT22;12762;51.730;5.356;2022-11-20T14:23:23;5.10;82.40
24618;DHT22;12762;51.730;5.356;2022-11-20T14:25:55;5.10;82.40
24618;DHT22;12762;51.730;5.356;2022-11-20T14:28:28;5.10;82.50
24618;DHT22;12762;51.730;5.356;2022-11-20T14:30:56;5.10;82.60
24618;DHT22;12762;51.730;5.356;2022-11-20T14:33:25;5.10;82.60
24618;DHT22;12762;51.730;5.356;2022-11-20T14:35:55;5.10;82.60
24618;DHT22;12762;51.730;5.356;2022-11-20T14:38:27;5.10;82.70
24618;DHT22;12762;51.730;5.356;2022-11-20T14:41:06;5.10;82.70
24618;DHT22;12762;51.730;5.356;2022-11-20T14:43:33;5.00;82.70
24618;DHT22;12762;51.730;5.356;2022-11-20T14:46:07;5.00;82.80
24618;DHT22;12762;51.730;5.356;2022-11-20T14:48:41;5.00;82.90
24618;DHT22;12762;51.730;5.356;2022-11-20T14:51:34;5.00;82.90
24618;DHT22;12762;51.730;5.356;2022-11-20T14:56:37;5.00;83.00
24618;DHT22;12762;51.730;5.356;2022-11-20T14:59:08;5.00;83.00
24618;DHT22;12762;51.730;5.356;2022-11-20T15:01:36;5.00;83.10
24618;DHT22;12762;51.730;5.356;2022-11-20T15:04:10;4.90;83.10
24618;DHT22;12762;51.730;5.356;2022-11-20T15:06:37;4.90;83.30
24618;DHT22;12762;51.730;5.356;2022-11-20T15:09:15;4.90;83.30
24618;DHT22;12762;51.730;5.356;2022-11-20T15:11:55;4.90;83.30
24618;DHT22;12762;51.730;5.356;2022-11-20T15:14:26;5.00;83.40
24618;DHT22;12762;51.730;5.356;2022-11-20T15:16:54;5.00;83.50
24618;DHT22;12762;51.730;5.356;2022-11-20T15:19:23;5.00;83.60
24618;DHT22;12762;51.730;5.356;2022-11-20T15:21:50;5.00;83.60
24618;DHT22;12762;51.730;5.356;2022-11-20T15:24:17;5.00;83.60
24618;DHT22;12762;51.730;5.356;2022-11-20T15:26:44;5.00;83.60
24618;DHT22;12762;51.730;5.356;2022-11-20T15:29:14;5.00;83.70
24618;DHT22;12762;51.730;5.356;2022-11-20T15:31:41;5.00;83.80
24618;DHT22;12762;51.730;5.356;2022-11-20T15:34:14;5.00;83.80
24618;DHT22;12762;51.730;5.356;2022-11-20T15:36:42;5.00;83.90
24618;DHT22;12762;51.730;5.356;2022-11-20T15:39:09;5.10;84.00
24618;DHT22;12762;51.730;5.356;2022-11-20T15:41:38;5.10;84.10
24618;DHT22;12762;51.730;5.356;2022-11-20T15:44:05;5.10;84.10
24618;DHT22;12762;51.730;5.356;2022-11-20T15:46:35;5.10;84.10
24618;DHT22;12762;51.730;5.356;2022-11-20T15:49:05;5.10;84.10
24618;DHT22;12762;51.730;5.356;2022-11-20T15:51:35;5.10;84.10
24618;DHT22;12762;51.730;5.356;2022-11-20T15:54:22;5.10;84.20
24618;DHT22;12762;51.730;5.356;2022-11-20T15:56:50;5.20;84.30
24618;DHT22;12762;51.730;5.356;2022-11-20T15:59:20;5.20;84.30
24618;DHT22;12762;51.730;5.356;2022-11-20T16:01:50;5.20;84.40
24618;DHT22;12762;51.730;5.356;2022-11-20T16:04:17;5.20;84.40
24618;DHT22;12762;51.730;5.356;2022-11-20T16:06:45;5.20;84.40
24618;DHT22;12762;51.730;5.356;2022-11-20T16:09:11;5.20;84.50
24618;DHT22;12762;51.730;5.356;2022-11-20T16:11:38;5.20;84.60
24618;DHT22;12762;51.730;5.356;2022-11-20T16:14:05;5.20;84.60
24618;DHT22;12762;51.730;5.356;2022-11-20T16:16:52;5.30;84.70
24618;DHT22;12762;51.730;5.356;2022-11-20T16:19:18;5.30;84.80
24618;DHT22;12762;51.730;5.356;2022-11-20T16:21:46;5.30;84.80
24618;DHT22;12762;51.730;5.356;2022-11-20T16:24:16;5.30;84.80
24618;DHT22;12762;51.730;5.356;2022-11-20T16:26:44;5.30;84.80
24618;DHT22;12762;51.730;5.356;2022-11-20T16:29:11;5.30;84.80
24618;DHT22;12762;51.730;5.356;2022-11-20T16:31:38;5.30;84.90
24618;DHT22;12762;51.730;5.356;2022-11-20T16:34:06;5.40;85.00
24618;DHT22;12762;51.730;5.356;2022-11-20T16:36:41;5.40;85.10
24618;DHT22;12762;51.730;5.356;2022-11-20T16:39:10;5.40;85.10
24618;DHT22;12762;51.730;5.356;2022-11-20T16:41:37;5.40;85.10
24618;DHT22;12762;51.730;5.356;2022-11-20T16:44:09;5.50;85.30
24618;DHT22;12762;51.730;5.356;2022-11-20T16:46:36;5.50;85.40
24618;DHT22;12762;51.730;5.356;2022-11-20T16:49:06;5.50;85.40
24618;DHT22;12762;51.730;5.356;2022-11-20T16:51:36;5.50;85.40
24618;DHT22;12762;51.730;5.356;2022-11-20T16:54:05;5.60;85.50
24618;DHT22;12762;51.730;5.356;2022-11-20T16:56:32;5.60;85.60
24618;DHT22;12762;51.730;5.356;2022-11-20T16:59:06;5.70;85.70
24618;DHT22;12762;51.730;5.356;2022-11-20T17:01:33;5.70;85.70
24618;DHT22;12762;51.730;5.356;2022-11-20T17:04:05;5.70;85.70
24618;DHT22;12762;51.730;5.356;2022-11-20T17:06:34;5.80;85.90
24618;DHT22;12762;51.730;5.356;2022-11-20T17:09:02;5.80;85.90
24618;DHT22;12762;51.730;5.356;2022-11-20T17:11:29;5.80;85.90
24618;DHT22;12762;51.730;5.356;2022-11-20T17:13:57;5.80;86.00
24618;DHT22;12762;51.730;5.356;2022-11-20T17:16:29;5.90;86.20
24618;DHT22;12762;51.730;5.356;2022-11-20T17:18:57;5.90;86.20
24618;DHT22;12762;51.730;5.356;2022-11-20T17:21:29;5.90;86.20
24618;DHT22;12762;51.730;5.356;2022-11-20T17:24:00;6.00;86.30